createdAt,value
2023-04-14T00:00:07.990Z,6.55
2023-04-14T00:02:41.799Z,6.53
2023-04-14T00:05:10.611Z,6.53
2023-04-14T00:07:38.693Z,6.57
2023-04-14T00:10:07.791Z,6.54
2023-04-14T00:12:35.735Z,6.50
2023-04-14T00:15:05.851Z,6.53
2023-04-14T00:17:33.890Z,6.49
2023-04-14T00:20:01.927Z,6.46
2023-04-14T00:22:30.048Z,6.45
2023-04-14T00:24:58.056Z,6.44
2023-04-14T00:27:26.229Z,6.43
2023-04-14T00:29:54.407Z,6.40
2023-04-14T00:32:23.985Z,6.36
2023-04-14T00:34:52.006Z,6.39
2023-04-14T00:37:20.035Z,6.37
2023-04-14T00:39:47.973Z,6.36
2023-04-14T00:42:15.965Z,6.40
2023-04-14T00:44:43.894Z,6.39
2023-04-14T00:47:12.079Z,6.42
2023-04-14T00:49:41.622Z,6.43
2023-04-14T00:52:09.795Z,6.42
2023-04-14T00:54:39.036Z,6.46
2023-04-14T00:57:07.543Z,6.47
2023-04-14T00:59:35.767Z,6.50
2023-04-14T01:02:04.306Z,6.52
2023-04-14T01:04:49.146Z,6.59
2023-04-14T01:07:23.312Z,6.65
2023-04-14T01:09:51.916Z,6.72
2023-04-14T01:12:32.743Z,6.72
2023-04-14T01:15:13.202Z,6.76
2023-04-14T01:17:47.000Z,6.80
2023-04-14T01:20:25.782Z,6.81
2023-04-14T01:22:59.690Z,6.81
2023-04-14T01:26:07.090Z,6.87
2023-04-14T01:28:49.688Z,6.85
2023-04-14T01:31:26.599Z,6.87
2023-04-14T01:34:01.291Z,6.91
2023-04-14T01:36:39.396Z,6.99
2023-04-14T01:39:11.100Z,7.12
2023-04-14T01:41:43.310Z,7.03
2023-04-14T01:44:12.196Z,7.12
2023-04-14T01:46:43.931Z,7.06
2023-04-14T01:49:13.054Z,7.08
2023-04-14T01:51:44.727Z,7.07
2023-04-14T01:54:15.647Z,7.05
2023-04-14T01:56:46.280Z,7.06
2023-04-14T01:59:16.507Z,7.10
2023-04-14T02:01:47.715Z,7.10
2023-04-14T02:04:17.897Z,7.10
2023-04-14T02:06:48.250Z,7.05
2023-04-14T02:09:16.779Z,7.09
2023-04-14T02:11:46.061Z,7.11
2023-04-14T02:14:16.482Z,7.16
2023-04-14T02:16:48.386Z,7.07
2023-04-14T02:19:19.183Z,7.02
2023-04-14T02:21:49.114Z,7.02
2023-04-14T02:24:17.251Z,7.00
2023-04-14T02:26:54.401Z,6.95
2023-04-14T02:29:26.174Z,6.95
2023-04-14T02:32:00.996Z,7.05
2023-04-14T02:34:32.982Z,6.99
2023-04-14T02:37:08.496Z,6.94
2023-04-14T02:39:41.411Z,6.92
2023-04-14T02:42:15.001Z,6.92
2023-04-14T02:44:49.913Z,7.04
2023-04-14T02:47:25.227Z,6.94
2023-04-14T02:49:57.772Z,6.96
2023-04-14T02:52:31.537Z,6.98
2023-04-14T02:55:01.422Z,6.95
2023-04-14T02:57:30.993Z,6.99
2023-04-14T03:00:00.370Z,7.01
2023-04-14T03:02:31.384Z,7.01
2023-04-14T03:05:06.722Z,6.96
2023-04-14T03:07:44.937Z,6.98
2023-04-14T03:10:16.227Z,6.99
2023-04-14T03:12:46.375Z,7.00
2023-04-14T03:15:14.535Z,6.94
2023-04-14T03:17:46.402Z,7.04
2023-04-14T03:20:20.110Z,6.99
2023-04-14T03:22:57.303Z,6.98
2023-04-14T03:25:28.344Z,6.92
2023-04-14T03:28:02.035Z,6.91
2023-04-14T03:30:32.844Z,6.91
2023-04-14T03:33:07.241Z,6.90
2023-04-14T03:35:38.587Z,6.81
2023-04-14T03:38:09.506Z,6.84
2023-04-14T03:40:41.347Z,6.91
2023-04-14T03:43:12.695Z,6.96
2023-04-14T03:45:44.310Z,6.91
2023-04-14T03:48:17.203Z,6.94
2023-04-14T03:50:51.669Z,6.90
2023-04-14T03:53:21.736Z,6.91
2023-04-14T03:55:53.599Z,6.91
2023-04-14T03:58:22.556Z,6.87
2023-04-14T04:00:54.829Z,6.93
2023-04-14T04:03:25.298Z,6.91
2023-04-14T04:05:54.483Z,6.90
2023-04-14T04:08:23.968Z,6.90
2023-04-14T04:10:53.419Z,6.91
2023-04-14T04:13:22.474Z,6.88
2023-04-14T04:15:51.559Z,6.89
2023-04-14T04:18:19.635Z,6.85
2023-04-14T04:20:50.940Z,6.83
2023-04-14T04:23:21.209Z,6.83
2023-04-14T04:25:50.198Z,6.82
2023-04-14T04:28:32.609Z,6.79
2023-04-14T04:31:01.815Z,6.79
2023-04-14T04:33:32.538Z,6.76
2023-04-14T04:36:05.327Z,6.77
2023-04-14T04:38:38.966Z,6.74
2023-04-14T04:41:07.362Z,6.74
2023-04-14T04:43:35.545Z,6.73
2023-04-14T04:46:25.784Z,6.75
2023-04-14T04:48:56.578Z,6.72
2023-04-14T04:51:28.838Z,6.75
2023-04-14T04:53:58.258Z,6.74
2023-04-14T04:56:26.268Z,6.65
2023-04-14T04:58:54.741Z,6.62
2023-04-14T05:01:22.808Z,6.69
2023-04-14T05:03:51.029Z,6.71
2023-04-14T05:06:19.020Z,6.69
2023-04-14T05:08:48.460Z,6.68
2023-04-14T05:11:16.536Z,6.68
2023-04-14T05:13:44.495Z,6.73
2023-04-14T05:16:14.669Z,6.75
2023-04-14T05:18:43.141Z,6.73
2023-04-14T05:21:13.211Z,6.81
2023-04-14T05:23:43.602Z,6.74
2023-04-14T05:26:38.986Z,6.72
2023-04-14T05:29:02.085Z,6.74
2023-04-14T05:31:30.478Z,6.68
2023-04-14T05:33:58.795Z,6.74
2023-04-14T05:36:27.446Z,6.71
2023-04-14T05:38:55.411Z,6.72
2023-04-14T05:41:25.066Z,6.70
2023-04-14T05:43:53.088Z,6.81
2023-04-14T05:46:21.163Z,6.82
2023-04-14T05:48:49.285Z,6.83
2023-04-14T05:51:17.298Z,6.83
2023-04-14T05:53:45.521Z,6.80
2023-04-14T05:56:14.211Z,6.86
2023-04-14T05:58:43.671Z,6.86
2023-04-14T06:01:11.798Z,6.86
2023-04-14T06:03:40.795Z,6.87
2023-04-14T06:06:09.745Z,6.92
2023-04-14T06:08:37.753Z,6.90
2023-04-14T06:11:06.687Z,6.99
2023-04-14T06:13:36.292Z,7.06
2023-04-14T06:16:06.578Z,7.04
2023-04-14T06:18:34.541Z,7.14
2023-04-14T06:21:02.953Z,7.14
2023-04-14T06:23:31.640Z,7.17
2023-04-14T06:25:59.909Z,7.22
2023-04-14T06:28:27.909Z,7.21
2023-04-14T06:30:56.057Z,7.34
2023-04-14T06:33:25.662Z,7.39
2023-04-14T06:35:53.629Z,7.40
2023-04-14T06:38:21.634Z,7.47
2023-04-14T06:40:51.894Z,7.50
2023-04-14T06:43:21.207Z,7.52
2023-04-14T06:45:50.863Z,7.63
2023-04-14T06:48:19.065Z,7.73
2023-04-14T06:50:55.179Z,7.81
2023-04-14T06:53:23.310Z,7.88
2023-04-14T06:55:59.125Z,7.92
2023-04-14T06:58:28.647Z,8.02
2023-04-14T07:00:57.631Z,8.00
2023-04-14T07:03:26.564Z,8.04
2023-04-14T07:05:56.100Z,8.11
2023-04-14T07:08:24.085Z,8.19
2023-04-14T07:11:01.643Z,8.21
2023-04-14T07:13:29.882Z,8.27
2023-04-14T07:15:57.953Z,8.24
2023-04-14T07:18:26.013Z,8.22
2023-04-14T07:20:55.677Z,8.20
2023-04-14T07:23:23.875Z,8.19
2023-04-14T07:25:52.756Z,8.20
2023-04-14T07:28:21.416Z,8.22
2023-04-14T07:30:50.196Z,8.10
2023-04-14T07:33:19.131Z,8.14
2023-04-14T07:35:58.733Z,8.17
2023-04-14T07:38:31.664Z,8.10
2023-04-14T07:40:59.732Z,8.19
2023-04-14T07:43:27.909Z,8.24
2023-04-14T07:45:55.984Z,8.33
2023-04-14T07:48:24.025Z,8.39
2023-04-14T07:50:52.419Z,8.43
2023-04-14T07:53:20.502Z,8.53
2023-04-14T07:55:50.016Z,8.52
2023-04-14T07:58:18.151Z,8.67
2023-04-14T08:00:46.349Z,8.69
2023-04-14T08:03:14.809Z,8.79
2023-04-14T08:05:43.880Z,8.76
2023-04-14T08:08:12.421Z,8.85
2023-04-14T08:10:41.868Z,8.99
2023-04-14T08:13:11.268Z,8.95
2023-04-14T08:15:39.216Z,9.03
2023-04-14T08:18:07.736Z,9.05
2023-04-14T08:20:36.120Z,9.10
2023-04-14T08:23:06.586Z,9.28
2023-04-14T08:25:34.576Z,9.39
2023-04-14T08:28:02.559Z,9.35
2023-04-14T08:30:32.296Z,9.49
2023-04-14T08:33:00.342Z,9.71
2023-04-14T08:35:38.942Z,9.90
2023-04-14T08:38:09.468Z,9.94
2023-04-14T08:40:39.301Z,10.09
2023-04-14T08:43:07.762Z,10.29
2023-04-14T08:45:37.722Z,10.43
2023-04-14T08:48:06.638Z,10.46
2023-04-14T08:50:38.577Z,10.54
2023-04-14T08:53:10.903Z,10.57
2023-04-14T08:55:42.019Z,10.51
2023-04-14T08:58:11.508Z,10.57
2023-04-14T09:00:42.580Z,10.62
2023-04-14T09:03:11.139Z,10.92
2023-04-14T09:05:40.676Z,11.05
2023-04-14T09:08:09.008Z,11.17
2023-04-14T09:10:37.625Z,11.22
2023-04-14T09:13:06.620Z,11.03
2023-04-14T09:15:34.669Z,11.19
2023-04-14T09:19:09.898Z,11.10
2023-04-14T09:21:53.989Z,11.19
2023-04-14T09:24:30.276Z,11.10
2023-04-14T09:27:00.126Z,11.11
2023-04-14T09:29:28.104Z,11.08
2023-04-14T09:31:56.194Z,11.11
2023-04-14T09:34:24.295Z,11.15
2023-04-14T09:37:05.580Z,10.97
2023-04-14T09:39:34.165Z,11.01
2023-04-14T09:42:02.812Z,10.99
2023-04-14T09:44:31.256Z,11.01
2023-04-14T09:47:00.877Z,11.03
2023-04-14T09:49:30.008Z,10.79
2023-04-14T09:52:08.328Z,10.94
2023-04-14T09:54:37.395Z,10.71
2023-04-14T09:57:05.442Z,10.59
2023-04-14T09:59:34.969Z,10.78
2023-04-14T10:02:06.104Z,10.84
2023-04-14T10:04:34.595Z,10.82
2023-04-14T10:07:02.840Z,10.87
2023-04-14T10:09:37.842Z,10.94
2023-04-14T10:12:10.929Z,11.03
2023-04-14T10:14:39.879Z,10.98
2023-04-14T10:17:08.308Z,10.91
2023-04-14T10:19:37.805Z,10.94
2023-04-14T10:22:06.992Z,11.06
2023-04-14T10:24:37.568Z,11.12
2023-04-14T10:27:06.172Z,10.97
2023-04-14T10:29:34.415Z,11.09
2023-04-14T10:32:06.354Z,11.09
2023-04-14T10:34:35.005Z,11.14
2023-04-14T10:37:16.225Z,10.98
2023-04-14T10:39:55.914Z,10.55
2023-04-14T10:42:24.430Z,10.22
2023-04-14T10:45:06.811Z,9.86
2023-04-14T10:47:36.213Z,9.84
2023-04-14T10:50:14.778Z,9.68
2023-04-14T10:52:54.199Z,9.46
2023-04-14T10:55:28.116Z,9.64
2023-04-14T10:58:05.401Z,9.64
2023-04-14T11:00:39.230Z,9.76
2023-04-14T11:03:10.948Z,9.58
2023-04-14T11:05:43.905Z,9.73
2023-04-14T11:08:16.928Z,9.75
2023-04-14T11:10:51.192Z,9.90
2023-04-14T11:13:20.635Z,9.83
2023-04-14T11:15:50.768Z,9.67
2023-04-14T11:18:22.479Z,9.74
2023-04-14T11:20:53.741Z,9.98
2023-04-14T11:23:29.181Z,10.02
2023-04-14T11:25:59.175Z,10.42
2023-04-14T11:28:31.475Z,10.58
2023-04-14T11:31:00.441Z,10.52
2023-04-14T11:33:30.028Z,10.73
2023-04-14T11:35:58.777Z,10.61
2023-04-14T11:38:26.866Z,10.64
2023-04-14T11:40:56.728Z,10.70
2023-04-14T11:43:26.516Z,10.97
2023-04-14T11:45:54.780Z,10.88
2023-04-14T11:48:22.939Z,11.26
2023-04-14T11:50:51.049Z,11.53
2023-04-14T11:53:20.078Z,11.52
2023-04-14T11:55:49.854Z,12.06
2023-04-14T11:58:23.791Z,12.25
2023-04-14T12:00:55.966Z,12.20
2023-04-14T12:03:28.531Z,12.03
2023-04-14T12:05:58.472Z,11.87
2023-04-14T12:08:27.125Z,11.79
2023-04-14T12:10:56.318Z,11.73
2023-04-14T12:13:26.471Z,11.48
2023-04-14T12:15:56.208Z,11.76
2023-04-14T12:18:24.548Z,11.52
2023-04-14T12:20:54.469Z,11.76
2023-04-14T12:23:23.505Z,11.73
2023-04-14T12:25:52.321Z,11.78
2023-04-14T12:28:25.393Z,11.72
2023-04-14T12:30:57.306Z,11.60
2023-04-14T12:33:25.353Z,12.26
2023-04-14T12:35:55.042Z,11.92
2023-04-14T12:38:28.079Z,11.88
2023-04-14T12:40:56.701Z,11.94
2023-04-14T12:43:29.135Z,11.82
2023-04-14T12:45:59.859Z,11.85
2023-04-14T12:48:45.153Z,11.82
2023-04-14T12:51:14.396Z,11.65
2023-04-14T12:53:44.128Z,11.32
2023-04-14T12:56:14.279Z,11.55
2023-04-14T12:58:46.757Z,11.29
2023-04-14T13:01:18.171Z,11.02
2023-04-14T13:03:50.467Z,10.89
2023-04-14T13:06:20.536Z,10.87
2023-04-14T13:08:53.242Z,10.79
2023-04-14T13:11:23.426Z,10.74
2023-04-14T13:13:52.331Z,10.86
2023-04-14T13:16:22.300Z,11.07
2023-04-14T13:18:51.045Z,11.09
2023-04-14T13:21:19.365Z,10.99
2023-04-14T13:23:47.388Z,10.75
2023-04-14T13:26:15.524Z,10.68
2023-04-14T13:28:43.735Z,11.02
2023-04-14T13:31:13.296Z,11.03
2023-04-14T13:33:42.792Z,10.86
2023-04-14T13:36:10.806Z,10.92
2023-04-14T13:38:38.766Z,10.95
2023-04-14T13:41:07.210Z,10.80
2023-04-14T13:43:35.231Z,10.67
2023-04-14T13:46:03.381Z,10.72
2023-04-14T13:48:39.742Z,10.64
2023-04-14T13:51:09.216Z,10.56
2023-04-14T13:53:37.449Z,10.67
2023-04-14T13:56:05.983Z,10.73
2023-04-14T13:58:34.019Z,10.72
2023-04-14T14:01:10.522Z,10.68
2023-04-14T14:03:40.478Z,10.57
2023-04-14T14:06:09.951Z,10.46
2023-04-14T14:08:38.090Z,10.46
2023-04-14T14:11:06.875Z,10.51
2023-04-14T14:13:36.047Z,10.38
2023-04-14T14:16:04.752Z,10.46
2023-04-14T14:18:32.933Z,10.25
2023-04-14T14:21:01.099Z,10.45
2023-04-14T14:23:30.456Z,10.35
2023-04-14T14:25:58.609Z,10.24
2023-04-14T14:28:26.591Z,10.41
2023-04-14T14:30:54.767Z,10.33
2023-04-14T14:33:22.766Z,10.23
2023-04-14T14:35:51.022Z,10.18
2023-04-14T14:38:19.095Z,10.15
2023-04-14T14:40:48.614Z,10.29
2023-04-14T14:43:16.667Z,10.16
2023-04-14T14:45:44.635Z,10.17
2023-04-14T14:48:13.384Z,10.01
2023-04-14T14:50:41.586Z,10.16
2023-04-14T14:53:09.599Z,10.16
2023-04-14T14:55:37.601Z,10.09
2023-04-14T14:58:08.446Z,10.10
2023-04-14T15:00:36.447Z,10.14
2023-04-14T15:03:05.355Z,10.11
2023-04-14T15:05:33.556Z,10.12
2023-04-14T15:08:01.685Z,10.03
2023-04-14T15:10:29.739Z,10.15
2023-04-14T15:12:57.735Z,10.15
2023-04-14T15:15:27.506Z,10.09
2023-04-14T15:17:55.994Z,10.08
2023-04-14T15:20:24.070Z,10.07
2023-04-14T15:22:52.248Z,9.90
2023-04-14T15:25:21.587Z,9.87
2023-04-14T15:27:49.610Z,9.86
2023-04-14T15:30:17.704Z,9.85
2023-04-14T15:32:47.361Z,9.84
2023-04-14T15:35:15.561Z,9.86
2023-04-14T15:37:43.788Z,9.94
2023-04-14T15:40:12.276Z,10.02
2023-04-14T15:42:40.451Z,10.10
2023-04-14T15:45:09.478Z,10.21
2023-04-14T15:47:37.519Z,10.33
2023-04-14T15:50:09.783Z,10.33
2023-04-14T15:52:39.457Z,10.35
2023-04-14T15:55:10.061Z,10.43
2023-04-14T15:57:38.252Z,10.30
2023-04-14T16:00:08.320Z,10.19
2023-04-14T16:02:43.129Z,10.20
2023-04-14T16:05:13.083Z,10.11
2023-04-14T16:07:41.641Z,10.10
2023-04-14T16:10:10.163Z,9.96
2023-04-14T16:12:38.632Z,10.02
2023-04-14T16:15:08.442Z,10.04
2023-04-14T16:17:36.568Z,9.90
2023-04-14T16:20:04.962Z,9.90
2023-04-14T16:22:34.362Z,9.83
2023-04-14T16:25:02.459Z,9.70
2023-04-14T16:27:30.564Z,9.82
2023-04-14T16:29:58.588Z,9.84
2023-04-14T16:32:26.885Z,9.84
2023-04-14T16:34:55.042Z,9.84
2023-04-14T16:37:25.896Z,9.72
2023-04-14T16:39:58.272Z,9.71
2023-04-14T16:42:26.428Z,9.83
2023-04-14T16:44:55.100Z,9.90
2023-04-14T16:47:24.017Z,9.89
2023-04-14T16:49:52.936Z,9.86
2023-04-14T16:52:21.233Z,9.90
2023-04-14T16:54:49.173Z,10.00
2023-04-14T16:57:18.596Z,9.87
2023-04-14T16:59:48.119Z,9.79
2023-04-14T17:02:16.494Z,9.94
2023-04-14T17:04:44.745Z,9.84
2023-04-14T17:07:12.821Z,9.77
2023-04-14T17:09:40.995Z,9.75
2023-04-14T17:12:09.168Z,9.89
2023-04-14T17:14:38.500Z,9.78
2023-04-14T17:17:06.558Z,9.84
2023-04-14T17:19:34.714Z,9.82
2023-04-14T17:22:02.705Z,9.76
2023-04-14T17:24:31.454Z,9.80
2023-04-14T17:26:59.658Z,9.72
2023-04-14T17:29:29.560Z,9.73
2023-04-14T17:31:59.170Z,9.76
2023-04-14T17:34:27.944Z,9.61
2023-04-14T17:36:56.702Z,9.67
2023-04-14T17:39:26.899Z,9.59
2023-04-14T17:41:56.112Z,9.58
2023-04-14T17:44:31.299Z,9.60
2023-04-14T17:47:03.011Z,9.66
2023-04-14T17:49:31.510Z,9.59
2023-04-14T17:51:59.636Z,9.56
2023-04-14T17:54:27.632Z,9.56
2023-04-14T17:56:56.737Z,9.39
2023-04-14T17:59:24.867Z,9.44
2023-04-14T18:01:52.903Z,9.47
2023-04-14T18:04:22.588Z,9.55
2023-04-14T18:06:51.123Z,9.53
2023-04-14T18:09:19.136Z,9.52
2023-04-14T18:11:47.108Z,9.48
2023-04-14T18:14:15.405Z,9.43
2023-04-14T18:16:43.445Z,9.44
2023-04-14T18:19:11.534Z,9.47
2023-04-14T18:21:42.216Z,9.49
2023-04-14T18:26:43.822Z,9.46
2023-04-14T18:29:12.116Z,9.45
2023-04-14T18:31:40.146Z,9.48
2023-04-14T18:34:10.118Z,9.32
2023-04-14T18:36:38.809Z,9.39
2023-04-14T18:39:08.283Z,9.40
2023-04-14T18:41:36.403Z,9.35
2023-04-14T18:44:04.462Z,9.35
2023-04-14T18:47:47.347Z,9.34
2023-04-14T18:50:15.364Z,9.28
2023-04-14T18:52:43.413Z,9.31
2023-04-14T18:55:13.542Z,9.25
2023-04-14T18:57:41.698Z,9.27
2023-04-14T19:00:13.393Z,9.22
2023-04-14T19:03:56.252Z,9.28
2023-04-14T19:06:49.792Z,9.15
2023-04-14T19:09:17.842Z,9.26
2023-04-14T19:11:47.858Z,9.25
2023-04-14T19:14:15.957Z,9.22
2023-04-14T19:16:43.904Z,9.23
2023-04-14T19:19:11.847Z,9.17
2023-04-14T19:21:39.920Z,9.16
2023-04-14T19:24:07.891Z,9.18
2023-04-14T19:26:40.490Z,9.16
2023-04-14T19:29:10.064Z,9.15
2023-04-14T19:31:38.570Z,9.15
2023-04-14T19:34:06.683Z,9.18
2023-04-14T19:36:35.381Z,9.19
2023-04-14T19:39:03.930Z,9.11
2023-04-14T19:41:32.660Z,9.18
2023-04-14T19:44:00.926Z,9.13
2023-04-14T19:46:30.467Z,9.09
2023-04-14T19:48:59.070Z,9.06
2023-04-14T19:51:28.078Z,9.10
2023-04-14T19:53:56.038Z,9.10
2023-04-14T19:56:24.198Z,9.08
2023-04-14T19:58:54.060Z,9.10
2023-04-14T20:01:24.090Z,9.06
2023-04-14T20:04:07.043Z,9.06
2023-04-14T20:06:40.276Z,9.08
2023-04-14T20:09:08.304Z,9.06
2023-04-14T20:11:36.426Z,9.01
2023-04-14T20:14:04.915Z,8.96
2023-04-14T20:16:33.006Z,8.93
2023-04-14T20:19:02.713Z,8.93
2023-04-14T20:21:31.334Z,8.97
2023-04-14T20:23:59.422Z,8.88
2023-04-14T20:26:27.697Z,8.84
2023-04-14T20:28:56.103Z,8.86
2023-04-14T20:31:25.617Z,8.86
2023-04-14T20:33:53.762Z,8.85
2023-04-14T20:36:23.468Z,8.80
2023-04-14T20:38:51.780Z,8.78
2023-04-14T20:41:20.611Z,8.72
2023-04-14T20:43:48.855Z,8.76
2023-04-14T20:46:16.984Z,8.75
2023-04-14T20:48:45.088Z,8.72
2023-04-14T20:51:13.663Z,8.69
2023-04-14T20:53:43.406Z,8.69
2023-04-14T20:56:11.728Z,8.69
2023-04-14T20:58:39.747Z,8.67
2023-04-14T21:01:07.752Z,8.65
2023-04-14T21:03:36.250Z,8.63
2023-04-14T21:06:04.382Z,8.64
2023-04-14T21:08:32.439Z,8.61
2023-04-14T21:11:14.466Z,8.62
2023-04-14T21:15:30.956Z,8.60
2023-04-14T21:16:33.382Z,8.56
2023-04-14T21:19:02.766Z,8.56
2023-04-14T21:21:31.891Z,8.58
2023-04-14T21:23:59.925Z,8.59
2023-04-14T21:26:29.505Z,8.57
2023-04-14T21:28:57.690Z,8.50
2023-04-14T21:31:25.935Z,8.54
2023-04-14T21:33:53.954Z,8.53
2023-04-14T21:36:22.083Z,8.54
2023-04-14T21:38:50.416Z,8.54
2023-04-14T21:41:18.424Z,8.53
2023-04-14T21:43:47.764Z,8.55
2023-04-14T21:46:16.140Z,8.52
2023-04-14T21:48:44.187Z,8.53
2023-04-14T21:51:12.778Z,8.53
2023-04-14T21:53:40.778Z,8.52
2023-04-14T21:56:11.021Z,8.51
2023-04-14T21:58:40.322Z,8.56
2023-04-14T22:01:10.719Z,8.50
2023-04-14T22:03:41.415Z,8.45
2023-04-14T22:06:11.402Z,8.40
2023-04-14T22:08:40.749Z,8.42
2023-04-14T22:11:08.701Z,8.37
2023-04-14T22:13:36.890Z,8.36
2023-04-14T22:16:05.331Z,8.36
2023-04-14T22:18:35.775Z,8.30
2023-04-14T22:21:04.917Z,8.30
2023-04-14T22:23:33.132Z,8.31
2023-04-14T22:26:01.066Z,8.32
2023-04-14T22:28:29.104Z,8.31
2023-04-14T22:30:57.133Z,8.29
2023-04-14T22:33:25.889Z,8.25
2023-04-14T22:35:55.357Z,8.29
2023-04-14T22:38:23.487Z,8.31
2023-04-14T22:40:52.771Z,8.29
2023-04-14T22:43:20.992Z,8.32
2023-04-14T22:45:49.440Z,8.28
2023-04-14T22:48:17.774Z,8.30
2023-04-14T22:50:46.085Z,8.29
2023-04-14T22:53:15.734Z,8.32
2023-04-14T22:55:44.181Z,8.26
2023-04-14T22:58:16.655Z,8.28
2023-04-14T23:00:45.343Z,8.21
2023-04-14T23:03:13.596Z,8.26
2023-04-14T23:05:41.683Z,8.16
2023-04-14T23:08:10.275Z,8.18
2023-04-14T23:10:39.584Z,8.11
2023-04-14T23:13:08.278Z,8.11
2023-04-14T23:15:36.538Z,8.12
2023-04-14T23:18:05.602Z,8.12
2023-04-14T23:20:33.658Z,8.11
2023-04-14T23:23:02.688Z,8.12
2023-04-14T23:26:21.334Z,8.11
2023-04-14T23:28:52.926Z,8.07
2023-04-14T23:31:21.838Z,8.06
2023-04-14T23:33:52.686Z,8.06
2023-04-14T23:36:21.484Z,8.02
2023-04-14T23:38:49.629Z,8.03
2023-04-14T23:41:17.717Z,7.98
2023-04-14T23:43:45.892Z,7.97
2023-04-14T23:46:15.262Z,7.92
2023-04-14T23:48:43.334Z,7.89
2023-04-14T23:51:16.468Z,7.72
2023-04-14T23:53:46.394Z,7.79
2023-04-14T23:56:14.537Z,7.71
2023-04-14T23:58:42.501Z,7.73
